createdAt,value
2023-02-15T00:04:57.967Z,40.83
2023-02-15T00:11:07.919Z,40.42
2023-02-15T00:17:11.566Z,39.47
2023-02-15T00:23:16.491Z,40.10
2023-02-15T00:29:20.783Z,42.75
2023-02-15T00:35:24.141Z,42.35
2023-02-15T00:41:28.930Z,40.90
2023-02-15T00:47:32.293Z,38.80
2023-02-15T00:53:35.730Z,42.08
2023-02-15T00:59:40.540Z,38.42
2023-02-15T01:05:43.960Z,38.05
2023-02-15T01:11:47.749Z,33.72
2023-02-15T01:17:54.259Z,36.60
2023-02-15T01:23:57.681Z,33.83
2023-02-15T01:30:01.127Z,37.33
2023-02-15T01:36:06.570Z,36.50
2023-02-15T01:42:12.363Z,39.70
2023-02-15T01:48:21.299Z,41.58
2023-02-15T01:54:28.681Z,40.03
2023-02-15T02:00:32.654Z,38.13
2023-02-15T02:06:36.349Z,34.83
2023-02-15T02:12:42.191Z,37.40
2023-02-15T02:18:52.186Z,33.85
2023-02-15T02:25:10.521Z,33.55
2023-02-15T02:31:38.145Z,36.58
2023-02-15T02:37:48.849Z,34.08
2023-02-15T02:43:55.465Z,34.70
2023-02-15T02:50:01.647Z,33.15
2023-02-15T02:56:09.160Z,32.85
2023-02-15T03:02:14.886Z,31.48
2023-02-15T03:08:22.844Z,33.28
2023-02-15T03:14:27.690Z,31.58
2023-02-15T03:20:32.203Z,33.22
2023-02-15T03:26:37.102Z,29.95
2023-02-15T03:32:42.452Z,33.30
2023-02-15T03:38:48.123Z,33.38
2023-02-15T03:44:54.463Z,30.40
2023-02-15T03:51:18.541Z,32.75
2023-02-15T03:57:40.578Z,32.45
2023-02-15T04:03:45.224Z,31.50
2023-02-15T04:10:19.568Z,31.52
2023-02-15T04:16:23.104Z,31.02
2023-02-15T04:22:44.597Z,28.73
2023-02-15T04:28:49.453Z,30.85
2023-02-15T04:34:52.844Z,30.17
2023-02-15T04:40:56.220Z,30.90
2023-02-15T04:47:01.007Z,31.30
2023-02-15T04:53:04.423Z,33.35
2023-02-15T04:59:07.930Z,32.20
2023-02-15T05:05:14.054Z,32.85
2023-02-15T05:11:17.568Z,29.48
2023-02-15T05:17:20.925Z,32.90
2023-02-15T05:23:25.679Z,31.40
2023-02-15T05:29:29.087Z,30.67
2023-02-15T05:35:32.515Z,33.70
2023-02-15T05:41:37.355Z,31.83
2023-02-15T05:47:41.361Z,32.22
2023-02-15T05:53:44.933Z,34.15
2023-02-15T05:59:49.800Z,34.47
2023-02-15T06:05:53.268Z,32.28
2023-02-15T06:11:56.817Z,33.35
2023-02-15T06:18:01.885Z,32.83
2023-02-15T06:24:05.974Z,32.70
2023-02-15T06:30:09.941Z,34.97
2023-02-15T06:36:15.064Z,35.08
2023-02-15T06:42:19.361Z,34.50
2023-02-15T06:48:22.854Z,33.78
2023-02-15T06:54:27.936Z,33.15
2023-02-15T07:00:31.573Z,34.72
2023-02-15T07:06:35.341Z,38.22
2023-02-15T07:12:47.253Z,35.55
2023-02-15T07:18:50.819Z,32.60
2023-02-15T07:24:55.840Z,30.85
2023-02-15T07:31:00.703Z,36.83
2023-02-15T07:37:05.567Z,31.83
2023-02-15T07:43:09.352Z,33.38
2023-02-15T07:49:15.742Z,45.95
2023-02-15T07:55:19.726Z,35.20
2023-02-15T08:01:24.083Z,35.78
2023-02-15T08:07:29.158Z,33.22
2023-02-15T08:13:32.815Z,32.50
2023-02-15T08:19:36.855Z,33.97
2023-02-15T08:25:41.834Z,34.50
2023-02-15T08:31:45.711Z,54.80
2023-02-15T08:37:49.346Z,39.22
2023-02-15T08:43:55.472Z,36.08
2023-02-15T08:49:59.172Z,35.05
2023-02-15T08:56:02.962Z,35.58
2023-02-15T09:02:08.536Z,34.45
2023-02-15T09:08:12.621Z,44.80
2023-02-15T09:14:18.659Z,34.13
2023-02-15T09:20:23.992Z,34.80
2023-02-15T09:26:27.841Z,34.85
2023-02-15T09:32:31.397Z,35.38
2023-02-15T09:38:36.363Z,34.88
2023-02-15T09:44:46.487Z,35.70
2023-02-15T09:50:56.499Z,36.20
2023-02-15T09:57:03.185Z,38.25
2023-02-15T10:03:12.968Z,37.45
2023-02-15T10:09:37.373Z,40.90
2023-02-15T10:15:53.129Z,32.97
2023-02-15T10:22:02.253Z,32.10
2023-02-15T10:28:08.455Z,34.53
2023-02-15T10:34:19.728Z,33.33
2023-02-15T10:40:28.546Z,34.42
2023-02-15T10:46:39.646Z,31.35
2023-02-15T10:52:54.818Z,31.65
2023-02-15T10:59:14.478Z,31.30
2023-02-15T11:05:24.226Z,32.03
2023-02-15T11:11:30.963Z,32.03
2023-02-15T11:17:38.956Z,31.27
2023-02-15T11:23:45.589Z,31.45
2023-02-15T11:29:56.083Z,32.88
2023-02-15T11:36:03.768Z,29.40
2023-02-15T11:42:09.682Z,30.83
2023-02-15T11:48:15.437Z,29.35
2023-02-15T11:54:20.000Z,30.33
2023-02-15T12:00:26.644Z,29.35
2023-02-15T12:06:32.814Z,28.10
2023-02-15T12:12:37.841Z,35.17
2023-02-15T12:18:42.372Z,30.48
2023-02-15T12:24:49.279Z,29.55
2023-02-15T12:30:53.813Z,29.00
2023-02-15T12:36:59.213Z,24.35
2023-02-15T12:43:09.621Z,28.92
2023-02-15T12:49:20.987Z,24.80
2023-02-15T12:55:26.548Z,29.67
2023-02-15T13:01:35.252Z,27.02
2023-02-15T13:07:40.163Z,25.10
2023-02-15T13:13:50.936Z,27.58
2023-02-15T13:19:56.468Z,25.98
2023-02-15T13:26:01.778Z,26.75
2023-02-15T13:32:09.410Z,28.17
2023-02-15T13:38:35.268Z,20.23
2023-02-15T13:44:57.978Z,27.23
2023-02-15T13:51:08.851Z,25.42
2023-02-15T13:57:23.972Z,27.25
2023-02-15T14:03:43.454Z,24.77
2023-02-15T14:09:51.977Z,31.83
2023-02-15T14:16:00.257Z,18.27
2023-02-15T14:22:09.415Z,29.40
2023-02-15T14:28:16.459Z,27.77
2023-02-15T14:34:24.293Z,26.08
2023-02-15T14:40:51.669Z,28.20
2023-02-15T14:46:59.748Z,26.15
2023-02-15T14:59:41.241Z,28.65
2023-02-15T15:05:50.605Z,26.35
2023-02-15T15:11:54.606Z,26.95
2023-02-15T15:18:00.810Z,26.73
2023-02-15T15:24:04.894Z,33.38
2023-02-15T15:30:23.193Z,27.00
2023-02-15T15:36:37.972Z,28.55
2023-02-15T15:42:49.165Z,25.30
2023-02-15T15:48:54.249Z,24.98
2023-02-15T15:55:00.531Z,26.55
2023-02-15T16:01:06.911Z,26.08
2023-02-15T16:07:17.608Z,27.53
2023-02-15T16:13:23.028Z,22.97
2023-02-15T16:19:29.020Z,18.98
2023-02-15T16:25:41.648Z,15.82
2023-02-15T16:31:46.573Z,20.42
2023-02-15T16:37:50.124Z,22.70
2023-02-15T16:43:55.703Z,24.55
2023-02-15T16:50:03.336Z,26.25
2023-02-15T16:56:07.880Z,24.98
2023-02-15T17:02:40.103Z,27.42
2023-02-15T17:08:46.743Z,25.80
2023-02-15T17:14:57.198Z,26.80
2023-02-15T17:21:02.448Z,26.05
2023-02-15T17:27:11.308Z,27.73
2023-02-15T17:33:22.990Z,32.88
2023-02-15T17:39:26.900Z,22.88
2023-02-15T17:45:36.521Z,24.63
2023-02-15T17:51:40.048Z,29.95
2023-02-15T17:57:43.612Z,28.73
2023-02-15T18:04:07.046Z,29.65
2023-02-15T18:10:33.068Z,28.27
2023-02-15T18:16:37.854Z,31.83
2023-02-15T18:22:43.059Z,32.08
2023-02-15T18:28:46.549Z,34.60
2023-02-15T18:34:50.823Z,28.63
2023-02-15T18:40:55.607Z,27.50
2023-02-15T18:46:59.193Z,29.50
2023-02-15T18:53:04.138Z,28.23
2023-02-15T18:59:09.148Z,28.08
2023-02-15T19:05:13.396Z,29.50
2023-02-15T19:11:18.778Z,28.95
2023-02-15T19:17:24.025Z,29.60
2023-02-15T19:23:27.598Z,30.67
2023-02-15T19:29:32.225Z,29.55
2023-02-15T19:35:37.265Z,30.70
2023-02-15T19:41:42.721Z,31.27
2023-02-15T19:47:48.171Z,31.67
2023-02-15T19:53:53.139Z,31.90
2023-02-15T19:59:56.707Z,33.65
2023-02-15T20:06:00.154Z,33.67
2023-02-15T20:12:05.426Z,32.85
2023-02-15T20:18:08.868Z,33.58
2023-02-15T20:24:16.425Z,32.40
2023-02-15T20:30:22.500Z,34.28
2023-02-15T20:36:26.109Z,33.03
2023-02-15T20:42:29.558Z,34.15
2023-02-15T20:48:34.579Z,34.45
2023-02-15T20:54:38.111Z,35.00
2023-02-15T21:00:41.638Z,36.00
2023-02-15T21:06:46.639Z,37.75
2023-02-15T21:12:50.662Z,35.80
2023-02-15T21:18:54.072Z,35.38
2023-02-15T21:24:58.864Z,33.63
2023-02-15T21:31:03.327Z,34.33
2023-02-15T21:37:07.374Z,32.28
2023-02-15T21:43:34.490Z,33.13
2023-02-15T21:49:38.202Z,33.97
2023-02-15T21:55:41.679Z,32.92
2023-02-15T22:01:47.707Z,31.88
2023-02-15T22:07:51.128Z,30.88
2023-02-15T22:13:54.639Z,31.02
2023-02-15T22:19:59.772Z,28.73
2023-02-15T22:26:05.148Z,35.50
2023-02-15T22:32:12.899Z,29.58
2023-02-15T22:38:18.164Z,29.23
2023-02-15T22:44:23.630Z,28.23
2023-02-15T22:50:27.947Z,29.88
2023-02-15T22:56:35.522Z,28.50
2023-02-15T23:02:39.201Z,27.90
2023-02-15T23:08:42.618Z,27.23
2023-02-15T23:14:47.607Z,27.05
2023-02-15T23:20:52.290Z,28.05
2023-02-15T23:27:15.740Z,27.85
2023-02-15T23:33:22.139Z,28.00
2023-02-15T23:39:44.692Z,27.35
2023-02-15T23:45:48.757Z,28.58
2023-02-15T23:51:54.610Z,28.65
2023-02-15T23:57:58.030Z,30.05
